Terminal Aerodrome Forecast
Issued by NWS

Home | Current Version | Previous Version | Text Only | Print | Product List | Glossary On
Versions: 1 2 3 4 5 6 7 8 9 10 11 12 13 14 15 16 17 18 19 20 21 22 23 24 25 26 27 28
000
FTUS42 KMFL 101136
TAFFXE
TAF
KFXE 101136Z 1012/1112 33006KT P6SM VCSH FEW008 SCT020 BKN035
      TEMPO 1012/1014 5SM -RA BR SCT004 BKN015
     FM101400 05016G26KT P6SM VCSH FEW010 SCT025 BKN050=

USA.gov is the U.S. government's official web portal to all federal, state and local government web resources and services.